createdAt,value
2018-07-07T00:01:39.368Z,86.90
2018-07-07T00:04:07.090Z,87.10
2018-07-07T00:06:34.796Z,87.20
2018-07-07T00:09:02.679Z,87.80
2018-07-07T00:11:30.376Z,88.00
2018-07-07T00:15:01.205Z,88.00
2018-07-07T00:17:28.974Z,87.80
2018-07-07T00:19:56.685Z,87.70
2018-07-07T00:22:24.437Z,87.40
2018-07-07T00:24:52.158Z,87.70
2018-07-07T00:27:19.905Z,87.80
2018-07-07T00:29:47.968Z,87.80
2018-07-07T00:32:15.702Z,87.80
2018-07-07T00:34:43.726Z,87.40
2018-07-07T00:37:11.472Z,87.40
2018-07-07T00:39:39.258Z,87.30
2018-07-07T00:42:07.001Z,87.10
2018-07-07T00:44:34.716Z,87.00
2018-07-07T00:47:02.450Z,87.20
2018-07-07T00:49:30.172Z,87.20
2018-07-07T00:51:57.897Z,87.40
2018-07-07T00:54:25.631Z,87.20
2018-07-07T00:56:53.385Z,87.20
2018-07-07T00:59:21.197Z,87.20
2018-07-07T01:01:48.920Z,87.30
2018-07-07T01:04:17.078Z,87.40
2018-07-07T01:06:44.944Z,87.40
2018-07-07T01:09:19.822Z,87.30
2018-07-07T01:11:47.522Z,87.20
2018-07-07T01:14:15.235Z,87.30
2018-07-07T01:16:42.944Z,87.20
2018-07-07T01:19:10.648Z,87.50
2018-07-07T01:21:38.352Z,87.40
2018-07-07T01:24:06.059Z,87.50
2018-07-07T01:26:33.799Z,88.00
2018-07-07T01:29:01.463Z,88.20
2018-07-07T01:31:29.163Z,88.00
2018-07-07T01:33:56.842Z,88.20
2018-07-07T01:36:24.553Z,88.20
2018-07-07T01:38:52.250Z,88.10
2018-07-07T01:41:19.941Z,87.80
2018-07-07T01:43:47.764Z,88.20
2018-07-07T01:46:15.524Z,88.00
2018-07-07T01:48:43.224Z,88.00
2018-07-07T01:51:10.944Z,88.00
2018-07-07T01:53:38.634Z,87.80
2018-07-07T01:56:06.350Z,87.80
2018-07-07T01:58:34.056Z,87.60
2018-07-07T02:01:01.764Z,87.80
2018-07-07T02:03:29.478Z,87.60
2018-07-07T02:05:57.180Z,87.60
2018-07-07T02:08:24.892Z,87.70
2018-07-07T02:10:52.592Z,87.50
2018-07-07T02:13:20.326Z,87.90
2018-07-07T02:15:48.033Z,87.50
2018-07-07T02:18:15.737Z,87.30
2018-07-07T02:20:43.458Z,87.90
2018-07-07T02:23:11.165Z,87.80
2018-07-07T02:25:38.896Z,87.80
2018-07-07T02:28:06.592Z,87.70
2018-07-07T02:30:34.300Z,87.80
2018-07-07T02:33:02.013Z,88.10
2018-07-07T02:35:29.793Z,87.60
2018-07-07T02:37:57.511Z,87.60
2018-07-07T02:40:25.178Z,87.90
2018-07-07T02:42:52.933Z,88.40
2018-07-07T02:45:20.642Z,88.40
2018-07-07T02:47:48.347Z,88.50
2018-07-07T02:50:16.036Z,88.10
2018-07-07T02:52:43.865Z,88.00
2018-07-07T02:55:11.576Z,88.40
2018-07-07T02:57:39.282Z,88.00
2018-07-07T03:00:06.990Z,87.90
2018-07-07T03:02:34.715Z,88.40
2018-07-07T03:05:02.473Z,88.10
2018-07-07T03:07:30.193Z,88.20
2018-07-07T03:09:57.917Z,87.90
2018-07-07T03:12:25.637Z,88.40
2018-07-07T03:14:53.365Z,88.10
2018-07-07T03:17:21.097Z,87.60
2018-07-07T03:19:48.820Z,87.80
2018-07-07T03:22:16.516Z,88.10
2018-07-07T03:24:44.217Z,88.20
2018-07-07T03:27:11.961Z,88.20
2018-07-07T03:29:39.718Z,88.20
2018-07-07T03:32:07.439Z,87.80
2018-07-07T03:34:35.144Z,88.20
2018-07-07T03:37:02.879Z,87.80
2018-07-07T03:39:30.587Z,87.90
2018-07-07T03:41:58.311Z,87.70
2018-07-07T03:44:26.014Z,88.00
2018-07-07T03:46:53.725Z,88.20
2018-07-07T03:49:21.494Z,88.10
2018-07-07T03:51:49.145Z,88.20
2018-07-07T03:54:16.861Z,88.90
2018-07-07T03:56:44.553Z,87.80
2018-07-07T03:59:12.273Z,88.50
2018-07-07T04:01:39.971Z,88.10
2018-07-07T04:04:07.684Z,88.10
2018-07-07T04:06:35.459Z,88.30
2018-07-07T04:09:03.477Z,88.50
2018-07-07T04:11:31.255Z,88.40
2018-07-07T04:13:58.955Z,88.50
2018-07-07T04:16:26.650Z,87.90
2018-07-07T04:18:54.401Z,88.00
2018-07-07T04:21:22.083Z,88.00
2018-07-07T04:23:49.793Z,87.50
2018-07-07T04:26:17.499Z,87.40
2018-07-07T04:28:45.251Z,87.40
2018-07-07T04:31:12.967Z,87.60
2018-07-07T04:33:40.655Z,87.80
2018-07-07T04:36:08.379Z,87.70
2018-07-07T04:38:36.059Z,87.90
2018-07-07T04:41:03.748Z,87.60
2018-07-07T04:43:31.524Z,88.00
2018-07-07T04:45:59.290Z,87.80
2018-07-07T04:48:26.947Z,87.60
2018-07-07T04:50:54.753Z,87.80
2018-07-07T04:53:22.455Z,88.00
2018-07-07T04:55:50.158Z,87.30
2018-07-07T04:58:17.833Z,87.50
2018-07-07T05:00:45.548Z,87.80
2018-07-07T05:03:13.257Z,88.00
2018-07-07T05:05:40.967Z,88.10
2018-07-07T05:08:08.731Z,87.70
2018-07-07T05:10:36.453Z,87.00
2018-07-07T05:13:04.201Z,88.00
2018-07-07T05:15:31.897Z,88.50
2018-07-07T05:17:59.619Z,87.80
2018-07-07T05:20:27.341Z,87.90
2018-07-07T05:22:55.041Z,88.00
2018-07-07T05:25:22.725Z,88.60
2018-07-07T05:27:50.453Z,87.50
2018-07-07T05:30:18.173Z,87.80
2018-07-07T05:32:45.882Z,87.30
2018-07-07T05:35:13.561Z,86.90
2018-07-07T05:37:41.296Z,86.90
2018-07-07T05:40:09.037Z,86.80
2018-07-07T05:42:36.729Z,86.80
2018-07-07T05:45:04.868Z,86.70
2018-07-07T05:47:32.564Z,87.00
2018-07-07T05:50:00.275Z,87.00
2018-07-07T05:52:28.024Z,87.70
2018-07-07T05:54:55.729Z,87.30
2018-07-07T05:57:23.484Z,87.40
2018-07-07T05:59:51.250Z,87.30
2018-07-07T06:04:46.610Z,87.20
2018-07-07T06:07:14.319Z,87.10
2018-07-07T06:09:42.033Z,87.20
2018-07-07T06:12:09.780Z,87.40
2018-07-07T06:14:37.545Z,87.30
2018-07-07T06:17:05.255Z,87.40
2018-07-07T06:19:32.931Z,87.20
2018-07-07T06:22:00.615Z,87.40
2018-07-07T06:26:55.879Z,87.80
2018-07-07T06:29:30.319Z,87.50
2018-07-07T06:31:58.017Z,87.70
2018-07-07T06:34:25.724Z,87.20
2018-07-07T06:36:53.453Z,87.70
2018-07-07T06:39:21.169Z,87.70
2018-07-07T06:41:48.858Z,87.90
2018-07-07T06:44:16.563Z,87.70
2018-07-07T06:46:44.265Z,87.80
2018-07-07T06:49:11.974Z,87.80
2018-07-07T06:51:39.673Z,87.80
2018-07-07T06:54:07.531Z,87.70
2018-07-07T07:01:30.244Z,87.60
2018-07-07T07:03:57.966Z,87.80
2018-07-07T07:06:25.688Z,87.60
2018-07-07T07:08:53.392Z,87.90
2018-07-07T07:11:21.104Z,88.20
2018-07-07T07:13:48.808Z,88.10
2018-07-07T07:16:16.500Z,87.70
2018-07-07T07:18:44.199Z,87.80
2018-07-07T07:21:11.919Z,87.70
2018-07-07T07:23:39.605Z,87.80
2018-07-07T07:26:07.485Z,87.80
2018-07-07T07:28:35.063Z,87.80
2018-07-07T07:31:02.798Z,88.10
2018-07-07T07:33:30.511Z,88.10
2018-07-07T07:35:58.275Z,87.90
2018-07-07T07:38:26.005Z,88.40
2018-07-07T07:40:53.705Z,88.50
2018-07-07T07:43:21.406Z,88.30
2018-07-07T07:45:49.110Z,88.20
2018-07-07T07:48:16.833Z,88.40
2018-07-07T07:50:44.513Z,88.40
2018-07-07T07:53:12.224Z,88.40
2018-07-07T07:55:39.917Z,88.40
2018-07-07T07:58:07.697Z,88.20
2018-07-07T08:00:35.407Z,88.90
2018-07-07T08:03:03.165Z,87.90
2018-07-07T08:05:30.833Z,88.10
2018-07-07T08:10:26.157Z,87.70
2018-07-07T08:12:53.847Z,87.80
2018-07-07T08:15:21.545Z,87.80
2018-07-07T08:17:49.298Z,87.00
2018-07-07T08:20:17.007Z,87.20
2018-07-07T08:22:44.713Z,86.80
2018-07-07T08:25:12.447Z,86.90
2018-07-07T08:27:40.149Z,87.00
2018-07-07T08:30:07.868Z,87.20
2018-07-07T08:32:35.570Z,86.90
2018-07-07T08:35:03.287Z,86.80
2018-07-07T08:37:30.991Z,87.10
2018-07-07T08:39:58.676Z,87.10
2018-07-07T08:42:26.572Z,87.20
2018-07-07T08:44:54.303Z,86.90
2018-07-07T08:47:22.041Z,87.20
2018-07-07T08:49:49.754Z,87.10
2018-07-07T08:52:17.472Z,87.30
2018-07-07T08:54:45.183Z,87.50
2018-07-07T08:57:12.921Z,88.80
2018-07-07T08:59:40.608Z,87.90
2018-07-07T09:02:08.343Z,87.90
2018-07-07T09:04:36.051Z,88.00
2018-07-07T09:07:03.796Z,88.30
2018-07-07T09:09:31.488Z,87.90
2018-07-07T09:11:59.177Z,88.80
2018-07-07T09:14:26.905Z,87.80
2018-07-07T09:16:54.590Z,87.70
2018-07-07T09:19:22.291Z,87.60
2018-07-07T09:21:50.027Z,87.90
2018-07-07T09:24:17.754Z,87.60
2018-07-07T09:26:45.459Z,87.60
2018-07-07T09:29:13.171Z,87.00
2018-07-07T09:31:40.883Z,87.00
2018-07-07T09:34:08.566Z,86.90
2018-07-07T09:36:36.276Z,87.30
2018-07-07T09:39:05.598Z,87.20
2018-07-07T09:41:33.297Z,87.20
2018-07-07T09:44:02.033Z,86.90
2018-07-07T09:46:29.756Z,87.00
2018-07-07T09:48:57.454Z,87.00
2018-07-07T09:51:25.161Z,86.80
2018-07-07T09:53:52.875Z,86.50
2018-07-07T09:56:20.643Z,86.40
2018-07-07T09:58:48.305Z,86.80
2018-07-07T10:01:16.037Z,86.20
2018-07-07T10:03:43.733Z,86.40
2018-07-07T10:06:11.437Z,86.00
2018-07-07T10:08:39.173Z,86.30
2018-07-07T10:11:06.988Z,87.70
2018-07-07T10:13:34.782Z,87.50
2018-07-07T10:16:02.454Z,87.70
2018-07-07T10:18:30.380Z,87.70
2018-07-07T10:20:58.112Z,87.60
2018-07-07T10:23:25.822Z,87.70
2018-07-07T10:25:53.526Z,87.50
2018-07-07T10:28:21.242Z,88.20
2018-07-07T10:30:48.952Z,87.50
2018-07-07T10:33:16.677Z,87.50
2018-07-07T10:35:44.369Z,86.60
2018-07-07T10:38:12.123Z,83.90
2018-07-07T10:40:40.089Z,83.60
2018-07-07T10:43:07.811Z,82.40
2018-07-07T10:45:35.602Z,81.80
2018-07-07T10:48:03.295Z,81.00
2018-07-07T10:50:30.983Z,81.10
2018-07-07T10:52:58.755Z,81.90
2018-07-07T10:55:26.498Z,81.70
2018-07-07T10:57:54.187Z,82.30
2018-07-07T11:00:21.923Z,82.90
2018-07-07T11:02:49.639Z,83.60
2018-07-07T11:05:17.342Z,83.50
2018-07-07T11:07:45.071Z,83.50
2018-07-07T11:10:12.839Z,83.50
2018-07-07T11:12:40.587Z,83.50
2018-07-07T11:15:08.333Z,83.60
2018-07-07T11:17:36.047Z,83.70
2018-07-07T11:20:04.267Z,83.80
2018-07-07T11:22:32.002Z,83.90
2018-07-07T11:24:59.688Z,84.00
2018-07-07T11:27:27.411Z,83.70
2018-07-07T11:29:55.209Z,84.40
2018-07-07T11:32:22.878Z,83.70
2018-07-07T11:34:50.624Z,83.30
2018-07-07T11:37:18.392Z,83.20
2018-07-07T11:39:46.118Z,83.40
2018-07-07T11:42:14.408Z,83.20
2018-07-07T11:44:42.147Z,83.30
2018-07-07T11:47:10.153Z,83.20
2018-07-07T11:49:37.888Z,83.70
2018-07-07T11:52:05.692Z,83.90
2018-07-07T11:54:33.430Z,84.10
2018-07-07T11:57:01.141Z,84.10
2018-07-07T11:59:28.852Z,84.30
2018-07-07T12:01:56.562Z,84.70
2018-07-07T12:04:24.359Z,84.90
2018-07-07T12:06:52.011Z,84.90
2018-07-07T12:09:19.748Z,85.40
2018-07-07T12:11:47.490Z,85.30
2018-07-07T12:14:15.205Z,85.00
2018-07-07T12:16:42.891Z,85.70
2018-07-07T12:19:10.617Z,85.40
2018-07-07T12:21:39.340Z,85.60
2018-07-07T12:24:07.088Z,85.20
2018-07-07T12:26:34.853Z,85.70
2018-07-07T12:29:02.660Z,85.70
2018-07-07T12:31:30.358Z,86.30
2018-07-07T12:33:58.136Z,86.50
2018-07-07T12:36:25.824Z,86.00
2018-07-07T12:38:53.516Z,86.70
2018-07-07T12:41:21.233Z,86.00
2018-07-07T12:43:49.230Z,86.10
2018-07-07T12:48:44.537Z,84.90
2018-07-07T12:51:12.276Z,84.50
2018-07-07T12:53:39.977Z,84.40
2018-07-07T12:56:07.691Z,85.20
2018-07-07T12:58:35.393Z,85.50
2018-07-07T13:01:03.104Z,84.20
2018-07-07T13:03:30.833Z,84.50
2018-07-07T13:05:58.594Z,84.80
2018-07-07T13:08:26.368Z,86.00
2018-07-07T13:13:21.690Z,86.30
2018-07-07T13:15:49.400Z,86.90
2018-07-07T13:18:17.136Z,87.50
2018-07-07T13:20:44.936Z,87.70
2018-07-07T13:23:12.636Z,87.50
2018-07-07T13:25:40.401Z,87.80
2018-07-07T13:28:08.420Z,87.80
2018-07-07T13:30:36.145Z,87.50
2018-07-07T13:33:03.949Z,87.00
2018-07-07T13:35:31.619Z,87.50
2018-07-07T13:37:59.399Z,87.10
2018-07-07T13:40:27.085Z,87.20
2018-07-07T13:42:54.820Z,88.00
2018-07-07T13:45:22.566Z,87.80
2018-07-07T13:47:50.243Z,88.00
2018-07-07T13:50:17.941Z,87.20
2018-07-07T13:52:45.702Z,87.20
2018-07-07T13:55:13.401Z,87.90
2018-07-07T13:57:41.180Z,86.10
2018-07-07T14:00:09.040Z,85.10
2018-07-07T14:02:36.850Z,85.10
2018-07-07T14:05:05.524Z,85.40
2018-07-07T14:07:33.223Z,85.20
2018-07-07T14:10:00.945Z,85.20
2018-07-07T14:12:28.662Z,85.50
2018-07-07T14:17:24.024Z,84.70
2018-07-07T14:19:51.689Z,85.20
2018-07-07T14:22:19.412Z,86.00
2018-07-07T14:24:47.116Z,87.10
2018-07-07T14:27:14.877Z,87.40
2018-07-07T14:29:42.585Z,87.20
2018-07-07T14:32:10.319Z,87.00
2018-07-07T14:34:38.147Z,87.80
2018-07-07T14:37:06.000Z,87.30
2018-07-07T14:39:46.445Z,86.60
2018-07-07T14:42:44.551Z,87.00
2018-07-07T14:45:16.522Z,86.60
2018-07-07T14:47:45.481Z,86.20
2018-07-07T14:50:13.756Z,86.50
2018-07-07T14:52:41.955Z,86.60
2018-07-07T14:55:09.660Z,86.30
2018-07-07T14:57:37.415Z,86.70
2018-07-07T15:00:06.008Z,86.40
2018-07-07T15:02:33.729Z,86.70
2018-07-07T15:05:01.496Z,87.00
2018-07-07T15:07:29.320Z,87.30
2018-07-07T15:09:57.098Z,86.80
2018-07-07T15:12:24.828Z,85.40
2018-07-07T15:14:52.539Z,85.60
2018-07-07T15:17:20.532Z,85.80
2018-07-07T15:19:48.241Z,86.10
2018-07-07T15:22:16.047Z,85.90
2018-07-07T15:24:43.835Z,85.70
2018-07-07T15:27:11.866Z,86.00
2018-07-07T15:29:39.593Z,87.40
2018-07-07T15:32:07.360Z,86.90
2018-07-07T15:34:35.051Z,86.80
2018-07-07T15:37:02.819Z,86.30
2018-07-07T15:39:30.535Z,87.30
2018-07-07T15:41:58.258Z,87.10
2018-07-07T15:44:25.982Z,87.30
2018-07-07T15:46:53.729Z,86.80
2018-07-07T15:49:21.444Z,87.20
2018-07-07T15:51:49.222Z,87.20
2018-07-07T15:54:17.351Z,86.80
2018-07-07T15:56:45.058Z,86.80
2018-07-07T15:59:12.769Z,87.10
2018-07-07T16:01:40.533Z,87.10
2018-07-07T16:04:08.245Z,86.80
2018-07-07T16:06:35.946Z,87.30
2018-07-07T16:09:04.614Z,87.80
2018-07-07T16:11:32.296Z,87.80
2018-07-07T16:14:00.032Z,87.80
2018-07-07T16:16:27.730Z,88.50
2018-07-07T16:18:55.435Z,89.30
2018-07-07T16:21:23.132Z,88.30
2018-07-07T16:23:50.823Z,88.30
2018-07-07T16:26:18.553Z,88.40
2018-07-07T16:28:46.251Z,88.30
2018-07-07T16:31:13.957Z,88.60
2018-07-07T16:33:41.645Z,89.20
2018-07-07T16:36:09.379Z,89.00
2018-07-07T16:38:38.015Z,89.20
2018-07-07T16:41:05.772Z,89.10
2018-07-07T16:43:33.578Z,89.80
2018-07-07T16:46:01.406Z,89.90
2018-07-07T16:48:29.135Z,89.10
2018-07-07T16:50:56.887Z,88.90
2018-07-07T16:53:24.707Z,88.00
2018-07-07T16:55:52.613Z,88.60
2018-07-07T16:58:20.623Z,87.90
2018-07-07T17:00:48.420Z,87.80
2018-07-07T17:03:16.234Z,87.80
2018-07-07T17:05:44.030Z,87.80
2018-07-07T17:08:11.837Z,88.00
2018-07-07T17:10:39.611Z,87.60
2018-07-07T17:13:07.327Z,87.50
2018-07-07T17:15:35.145Z,87.30
2018-07-07T17:18:04.452Z,87.10
2018-07-07T17:20:32.604Z,87.20
2018-07-07T17:23:00.407Z,86.60
2018-07-07T17:25:28.213Z,86.40
2018-07-07T17:27:56.123Z,86.50
2018-07-07T17:30:23.947Z,86.20
2018-07-07T17:32:51.790Z,86.10
2018-07-07T17:35:19.611Z,86.30
2018-07-07T17:37:47.384Z,86.20
2018-07-07T17:40:15.210Z,87.20
2018-07-07T17:42:43.042Z,86.00
2018-07-07T17:45:10.897Z,86.80
2018-07-07T17:47:38.636Z,86.30
2018-07-07T17:50:06.384Z,86.70
2018-07-07T17:52:35.520Z,86.90
2018-07-07T17:55:04.694Z,86.50
2018-07-07T17:57:32.519Z,87.30
2018-07-07T18:00:00.388Z,87.00
2018-07-07T18:02:28.172Z,87.00
2018-07-07T18:04:56.962Z,86.40
2018-07-07T18:07:24.690Z,86.30
2018-07-07T18:09:52.744Z,85.70
2018-07-07T18:12:20.435Z,86.10
2018-07-07T18:14:48.156Z,86.20
2018-07-07T18:17:15.896Z,85.60
2018-07-07T18:19:43.602Z,85.70
2018-07-07T18:22:11.314Z,85.50
2018-07-07T18:24:39.080Z,85.40
2018-07-07T18:27:06.820Z,85.50
2018-07-07T18:29:34.512Z,85.70
2018-07-07T18:32:02.274Z,85.50
2018-07-07T18:34:29.980Z,85.70
2018-07-07T18:36:57.670Z,85.70
2018-07-07T18:39:25.362Z,85.70
2018-07-07T18:41:53.068Z,86.00
2018-07-07T18:44:20.808Z,86.20
2018-07-07T18:46:48.557Z,86.20
2018-07-07T18:49:16.279Z,86.30
2018-07-07T18:51:44.009Z,86.50
2018-07-07T18:54:11.724Z,85.10
2018-07-07T18:56:39.488Z,85.60
2018-07-07T18:59:07.268Z,85.90
2018-07-07T19:01:35.009Z,87.30
2018-07-07T19:04:02.728Z,86.70
2018-07-07T19:06:30.468Z,86.50
2018-07-07T19:08:58.205Z,87.80
2018-07-07T19:11:26.137Z,87.20
2018-07-07T19:13:53.884Z,87.20
2018-07-07T19:16:21.605Z,87.20
2018-07-07T19:18:49.292Z,88.30
2018-07-07T19:21:22.690Z,88.30
2018-07-07T19:23:57.105Z,88.50
2018-07-07T19:26:30.520Z,87.80
2018-07-07T19:28:58.255Z,88.30
2018-07-07T19:31:25.953Z,87.00
2018-07-07T19:33:59.186Z,88.20
2018-07-07T19:36:32.397Z,89.10
2018-07-07T19:39:00.101Z,89.10
2018-07-07T19:41:27.828Z,88.80
2018-07-07T19:43:55.589Z,88.00
2018-07-07T19:46:23.347Z,89.30
2018-07-07T19:48:51.088Z,87.80
2018-07-07T19:53:46.496Z,88.20
2018-07-07T19:56:14.191Z,87.90
2018-07-07T19:58:41.891Z,88.50
2018-07-07T20:01:09.581Z,88.10
2018-07-07T20:03:37.291Z,88.00
2018-07-07T20:06:05.025Z,89.00
2018-07-07T20:08:32.746Z,89.00
2018-07-07T20:11:00.485Z,88.90
2018-07-07T20:13:28.212Z,90.50
2018-07-07T20:16:08.782Z,89.90
2018-07-07T20:20:56.689Z,90.50
2018-07-07T20:23:24.919Z,90.20
2018-07-07T20:25:58.273Z,89.80
2018-07-07T20:28:31.551Z,90.60
2018-07-07T20:30:59.397Z,91.30
2018-07-07T20:33:27.759Z,90.50
2018-07-07T20:35:55.518Z,90.30
2018-07-07T20:38:23.284Z,91.00
2018-07-07T20:40:51.097Z,89.80
2018-07-07T20:43:18.845Z,88.50
2018-07-07T20:45:46.589Z,89.30
2018-07-07T20:48:14.353Z,89.70
2018-07-07T20:50:42.193Z,89.30
2018-07-07T20:53:09.928Z,90.40
2018-07-07T20:55:37.728Z,88.30
2018-07-07T20:58:05.561Z,88.80
2018-07-07T21:00:33.333Z,87.80
2018-07-07T21:03:01.078Z,90.00
2018-07-07T21:05:28.943Z,87.00
2018-07-07T21:07:56.721Z,88.00
2018-07-07T21:10:24.764Z,88.60
2018-07-07T21:12:52.535Z,88.30
2018-07-07T21:15:20.317Z,88.40
2018-07-07T21:17:48.112Z,88.50
2018-07-07T21:20:15.879Z,88.60
2018-07-07T21:22:43.675Z,87.20
2018-07-07T21:25:11.429Z,88.00
2018-07-07T21:27:39.194Z,87.20
2018-07-07T21:30:07.048Z,85.90
2018-07-07T21:32:34.857Z,86.00
2018-07-07T21:35:02.618Z,85.50
2018-07-07T21:37:30.420Z,85.60
2018-07-07T21:39:58.167Z,86.10
2018-07-07T21:42:25.998Z,86.20
2018-07-07T21:44:53.947Z,86.60
2018-07-07T21:47:21.701Z,86.20
2018-07-07T21:49:49.532Z,86.70
2018-07-07T21:52:17.430Z,87.50
2018-07-07T21:54:45.193Z,88.40
2018-07-07T21:57:18.593Z,86.60
2018-07-07T21:59:46.436Z,87.10
2018-07-07T22:02:19.828Z,86.60
2018-07-07T22:04:53.050Z,86.50
2018-07-07T22:07:26.518Z,87.50
2018-07-07T22:09:54.252Z,86.70
2018-07-07T22:12:22.131Z,87.20
2018-07-07T22:14:49.920Z,86.60
2018-07-07T22:17:17.658Z,87.40
2018-07-07T22:19:45.401Z,87.30
2018-07-07T22:22:13.259Z,87.60
2018-07-07T22:27:11.827Z,86.60
2018-07-07T22:29:39.686Z,86.80
2018-07-07T22:32:13.175Z,86.90
2018-07-07T22:34:40.992Z,86.10
2018-07-07T22:37:08.951Z,85.30
2018-07-07T22:39:40.137Z,85.00
2018-07-07T22:42:12.185Z,85.20
2018-07-07T22:44:41.099Z,85.20
2018-07-07T22:47:08.872Z,85.80
2018-07-07T22:49:36.709Z,85.50
2018-07-07T22:52:06.241Z,85.80
2018-07-07T22:54:34.142Z,84.90
2018-07-07T22:57:01.877Z,85.70
2018-07-07T22:59:29.965Z,85.50
2018-07-07T23:01:57.703Z,86.00
2018-07-07T23:04:25.460Z,85.80
2018-07-07T23:06:53.211Z,85.70
2018-07-07T23:09:21.021Z,85.80
2018-07-07T23:11:48.763Z,85.80
2018-07-07T23:14:16.567Z,85.60
2018-07-07T23:16:44.345Z,85.30
2018-07-07T23:21:39.679Z,86.00
2018-07-07T23:24:07.546Z,86.00
2018-07-07T23:26:35.270Z,86.30
2018-07-07T23:29:03.684Z,86.20
2018-07-07T23:31:31.481Z,85.90
2018-07-07T23:33:59.298Z,85.90
2018-07-07T23:36:27.293Z,86.20
2018-07-07T23:38:55.132Z,85.90
2018-07-07T23:41:22.993Z,85.70
2018-07-07T23:43:50.980Z,85.40
2018-07-07T23:46:18.715Z,85.00
2018-07-07T23:48:46.431Z,84.60
2018-07-07T23:51:14.215Z,84.70
2018-07-07T23:53:42.025Z,84.50
2018-07-07T23:56:09.821Z,84.60
2018-07-07T23:58:37.621Z,84.90
